createdAt,value
2018-05-06T00:01:36.307Z,3.80
2018-05-06T00:13:12.860Z,4.07
2018-05-06T00:15:40.414Z,4.27
2018-05-06T00:18:08.209Z,3.90
2018-05-06T00:29:42.699Z,3.50
2018-05-06T00:32:10.429Z,3.80
2018-05-06T00:34:38.300Z,3.97
2018-05-06T00:46:15.441Z,7.97
2018-05-06T00:48:43.112Z,4.17
2018-05-06T00:51:10.760Z,3.80
2018-05-06T00:53:38.639Z,3.60
2018-05-06T01:05:14.613Z,3.03
2018-05-06T01:07:42.391Z,2.73
2018-05-06T01:10:09.951Z,4.03
2018-05-06T01:21:46.605Z,3.50
2018-05-06T01:24:14.344Z,2.40
2018-05-06T01:26:42.048Z,2.10
2018-05-06T01:38:18.260Z,2.80
2018-05-06T01:40:45.835Z,2.43
2018-05-06T01:43:13.547Z,3.00
2018-05-06T01:54:49.973Z,3.00
2018-05-06T01:57:18.583Z,3.87
2018-05-06T01:59:46.341Z,2.13
2018-05-06T02:11:28.028Z,2.13
2018-05-06T02:13:55.668Z,2.77
2018-05-06T02:16:23.295Z,2.40
2018-05-06T02:18:50.967Z,3.07
2018-05-06T02:30:27.145Z,3.70
2018-05-06T02:32:54.852Z,4.67
2018-05-06T02:35:22.484Z,3.37
2018-05-06T02:46:58.451Z,3.83
2018-05-06T02:49:26.044Z,2.67
2018-05-06T02:51:53.737Z,2.87
2018-05-06T03:03:30.812Z,3.80
2018-05-06T03:05:58.507Z,5.90
2018-05-06T03:08:26.275Z,3.97
2018-05-06T03:20:02.574Z,3.07
2018-05-06T03:22:30.364Z,3.60
2018-05-06T03:24:58.085Z,3.80
2018-05-06T03:36:41.982Z,4.77
2018-05-06T03:39:09.623Z,4.20
2018-05-06T03:41:37.147Z,4.40
2018-05-06T03:44:04.828Z,4.30
2018-05-06T03:55:41.207Z,6.30
2018-05-06T03:58:21.615Z,5.87
2018-05-06T04:00:49.285Z,10.03
2018-05-06T04:12:33.279Z,7.40
2018-05-06T04:15:00.874Z,7.70
2018-05-06T04:17:28.533Z,8.00
2018-05-06T04:28:54.236Z,8.50
2018-05-06T04:31:21.849Z,7.37
2018-05-06T04:33:49.470Z,7.20
2018-05-06T04:45:25.947Z,7.40
2018-05-06T04:47:53.537Z,7.27
2018-05-06T04:50:21.213Z,6.23
2018-05-06T04:52:49.465Z,5.87
2018-05-06T05:04:25.504Z,6.67
2018-05-06T05:06:53.093Z,9.13
2018-05-06T05:09:20.940Z,6.30
2018-05-06T05:20:57.026Z,5.57
2018-05-06T05:23:24.599Z,5.43
2018-05-06T05:25:52.245Z,5.73
2018-05-06T05:37:27.996Z,7.70
2018-05-06T05:39:55.659Z,9.17
2018-05-06T05:42:23.320Z,7.57
2018-05-06T05:53:59.407Z,8.97
2018-05-06T05:56:27.107Z,11.00
2018-05-06T05:58:54.842Z,9.90
2018-05-06T06:12:57.428Z,9.43
2018-05-06T06:15:25.023Z,9.27
2018-05-06T06:17:52.890Z,9.77
2018-05-06T06:29:29.144Z,8.50
2018-05-06T06:31:56.836Z,8.73
2018-05-06T06:34:24.715Z,8.50
2018-05-06T06:45:42.987Z,8.20
2018-05-06T06:48:10.549Z,8.50
2018-05-06T06:50:38.588Z,7.70
2018-05-06T07:02:15.503Z,6.60
2018-05-06T07:04:43.093Z,6.53
2018-05-06T07:07:10.763Z,7.40
2018-05-06T07:09:43.227Z,8.17
2018-05-06T07:20:49.427Z,6.80
2018-05-06T07:23:17.001Z,7.17
2018-05-06T07:25:45.796Z,7.47
2018-05-06T07:37:22.227Z,5.00
2018-05-06T07:39:50.123Z,6.00
2018-05-06T07:42:17.759Z,5.73
2018-05-06T07:53:53.099Z,5.73
2018-05-06T07:56:21.713Z,5.57
2018-05-06T07:58:49.565Z,5.37
2018-05-06T08:10:24.071Z,5.13
2018-05-06T08:12:51.653Z,4.87
2018-05-06T08:15:19.537Z,4.50
2018-05-06T08:17:47.235Z,5.03
2018-05-06T08:29:23.777Z,4.53
2018-05-06T08:31:51.487Z,4.60
2018-05-06T08:34:19.097Z,4.83
2018-05-06T08:45:55.607Z,4.53
2018-05-06T08:48:23.207Z,5.23
2018-05-06T08:50:51.196Z,4.60
2018-05-06T08:56:11.119Z,5.53
2018-05-06T09:01:33.973Z,4.83
2018-05-06T09:04:01.619Z,4.67
2018-05-06T09:06:29.250Z,5.50
2018-05-06T09:15:04.230Z,5.30
2018-05-06T09:20:35.652Z,5.73
2018-05-06T09:23:03.495Z,5.77
2018-05-06T09:25:31.243Z,5.93
2018-05-06T09:36:47.864Z,7.00
2018-05-06T09:39:15.632Z,7.07
2018-05-06T09:41:43.219Z,7.10
2018-05-06T09:44:13.108Z,7.17
2018-05-06T09:53:01.955Z,7.60
2018-05-06T09:55:29.644Z,8.37
2018-05-06T09:57:57.187Z,9.17
2018-05-06T10:00:25.160Z,8.30
2018-05-06T10:05:29.545Z,10.27
2018-05-06T10:08:01.313Z,8.97
2018-05-06T10:10:29.030Z,9.33
2018-05-06T10:12:56.588Z,7.53
2018-05-06T10:15:24.181Z,8.07
2018-05-06T10:17:52.099Z,7.60
2018-05-06T10:28:48.221Z,6.67
2018-05-06T10:31:15.917Z,6.70
2018-05-06T10:33:43.740Z,5.90
2018-05-06T10:36:14.448Z,6.73
2018-05-06T10:43:58.118Z,5.63
2018-05-06T10:46:25.840Z,5.20
2018-05-06T10:48:53.475Z,5.10
2018-05-06T10:51:21.127Z,4.80
2018-05-06T10:56:29.096Z,5.50
2018-05-06T11:01:33.661Z,6.43
2018-05-06T11:04:01.487Z,7.40
2018-05-06T11:06:28.979Z,7.20
2018-05-06T11:08:56.650Z,6.97
2018-05-06T11:19:12.172Z,6.10
2018-05-06T11:21:39.867Z,6.30
2018-05-06T11:24:07.423Z,5.83
2018-05-06T11:26:35.102Z,6.07
2018-05-06T11:29:03.005Z,6.23
2018-05-06T11:31:33.089Z,6.53
2018-05-06T11:36:37.215Z,5.40
2018-05-06T11:39:04.819Z,4.57
2018-05-06T11:41:32.656Z,4.30
2018-05-06T11:44:00.348Z,4.47
2018-05-06T11:46:37.464Z,4.17
2018-05-06T11:51:45.289Z,3.77
2018-05-06T11:54:12.944Z,3.93
2018-05-06T11:56:40.744Z,3.30
2018-05-06T11:59:08.423Z,3.07
2018-05-06T12:01:36.170Z,3.30
2018-05-06T12:09:26.661Z,2.97
2018-05-06T12:11:54.373Z,2.90
2018-05-06T12:14:22.021Z,3.17
2018-05-06T12:16:49.633Z,2.63
2018-05-06T12:28:05.384Z,3.47
2018-05-06T12:30:32.937Z,3.10
2018-05-06T12:33:00.443Z,3.27
2018-05-06T12:35:28.059Z,3.50
2018-05-06T12:47:11.862Z,3.67
2018-05-06T12:49:39.493Z,3.13
2018-05-06T12:52:07.167Z,3.03
2018-05-06T12:54:54.377Z,2.77
2018-05-06T13:02:52.252Z,3.00
2018-05-06T13:05:19.977Z,2.87
2018-05-06T13:07:47.563Z,2.80
2018-05-06T13:10:15.230Z,3.10
2018-05-06T13:21:51.338Z,3.20
2018-05-06T13:24:19.255Z,3.10
2018-05-06T13:26:48.347Z,2.90
2018-05-06T13:32:19.000Z,3.10
2018-05-06T13:35:00.367Z,3.10
2018-05-06T13:37:27.935Z,3.20
2018-05-06T13:39:55.562Z,2.80
2018-05-06T13:42:23.107Z,2.97
2018-05-06T13:44:50.604Z,2.80
2018-05-06T13:50:20.617Z,3.10
2018-05-06T13:52:48.231Z,2.70
2018-05-06T13:55:15.782Z,2.33
2018-05-06T13:57:43.408Z,2.50
2018-05-06T14:00:11.060Z,2.43
2018-05-06T14:14:19.743Z,2.57
2018-05-06T14:16:47.235Z,2.93
2018-05-06T14:19:14.759Z,3.20
2018-05-06T14:27:50.265Z,4.17
2018-05-06T14:31:54.204Z,3.93
2018-05-06T14:34:21.729Z,3.80
2018-05-06T14:36:49.309Z,3.57
2018-05-06T14:39:17.513Z,4.10
2018-05-06T14:41:46.159Z,4.00
2018-05-06T14:44:15.897Z,3.80
2018-05-06T14:46:55.388Z,3.93
2018-05-06T14:49:22.980Z,3.97
2018-05-06T14:51:50.610Z,3.90
2018-05-06T14:54:18.399Z,3.87
2018-05-06T14:56:49.623Z,4.63
2018-05-06T14:59:22.133Z,4.30
2018-05-06T15:01:52.938Z,3.93
2018-05-06T15:04:20.595Z,3.90
2018-05-06T15:06:48.202Z,3.43
2018-05-06T15:09:15.809Z,4.03
2018-05-06T15:11:43.651Z,4.00
2018-05-06T15:14:13.120Z,3.73
2018-05-06T15:16:44.498Z,4.80
2018-05-06T15:19:14.134Z,4.33
2018-05-06T15:21:41.690Z,4.40
2018-05-06T15:24:09.294Z,4.33
2018-05-06T15:26:36.962Z,3.90
2018-05-06T15:29:04.610Z,3.80
2018-05-06T15:31:33.946Z,4.80
2018-05-06T15:34:02.635Z,3.90
2018-05-06T15:36:30.395Z,4.17
2018-05-06T15:38:57.985Z,4.43
2018-05-06T15:41:25.610Z,5.40
2018-05-06T15:43:53.089Z,5.10
2018-05-06T15:46:21.045Z,4.77
2018-05-06T15:48:49.049Z,5.03
2018-05-06T15:51:17.257Z,5.10
2018-05-06T15:53:45.479Z,5.50
2018-05-06T15:56:13.144Z,5.10
2018-05-06T15:58:40.693Z,4.80
2018-05-06T16:01:08.420Z,5.10
2018-05-06T16:03:47.990Z,5.60
2018-05-06T16:06:15.658Z,5.37
2018-05-06T16:08:46.218Z,5.43
2018-05-06T16:11:15.055Z,6.40
2018-05-06T16:13:42.600Z,6.00
2018-05-06T16:16:10.240Z,5.93
2018-05-06T16:18:37.802Z,5.63
2018-05-06T16:21:05.455Z,6.37
2018-05-06T16:23:33.862Z,6.13
2018-05-06T16:26:02.372Z,6.70
2018-05-06T16:28:31.260Z,5.63
2018-05-06T16:30:58.855Z,6.23
2018-05-06T16:33:26.537Z,6.17
2018-05-06T16:35:54.091Z,6.27
2018-05-06T16:38:21.945Z,6.13
2018-05-06T16:43:25.960Z,6.50
2018-05-06T16:45:53.892Z,5.90
2018-05-06T16:48:21.455Z,5.90
2018-05-06T16:50:49.071Z,5.60
2018-05-06T16:53:16.631Z,6.03
2018-05-06T16:55:44.207Z,6.30
2018-05-06T16:58:11.831Z,5.80
2018-05-06T17:00:39.488Z,6.10
2018-05-06T17:03:07.172Z,5.57
2018-05-06T17:05:34.731Z,6.10
2018-05-06T17:08:02.393Z,5.60
2018-05-06T17:10:29.914Z,5.90
2018-05-06T17:12:57.593Z,6.47
2018-05-06T17:15:25.339Z,6.23
2018-05-06T17:17:53.008Z,6.00
2018-05-06T17:20:22.931Z,5.83
2018-05-06T17:22:50.499Z,5.60
2018-05-06T17:25:18.059Z,6.10
2018-05-06T17:27:49.604Z,6.40
2018-05-06T17:30:18.623Z,6.70
2018-05-06T17:32:46.495Z,7.17
2018-05-06T17:35:15.016Z,6.90
2018-05-06T17:37:43.581Z,6.67
2018-05-06T17:40:11.227Z,6.77
2018-05-06T17:42:38.746Z,6.70
2018-05-06T17:45:06.410Z,6.13
2018-05-06T17:47:34.096Z,6.50
2018-05-06T17:50:01.876Z,6.50
2018-05-06T17:52:29.600Z,7.20
2018-05-06T17:54:58.137Z,6.63
2018-05-06T17:57:25.778Z,6.47
2018-05-06T17:59:53.351Z,6.97
2018-05-06T18:02:20.859Z,7.20
2018-05-06T18:04:48.479Z,6.93
2018-05-06T18:07:16.188Z,7.30
2018-05-06T18:09:43.896Z,7.00
2018-05-06T18:12:11.496Z,7.23
2018-05-06T18:14:39.124Z,6.13
2018-05-06T18:17:06.907Z,6.10
2018-05-06T18:19:34.637Z,6.50
2018-05-06T18:22:02.214Z,6.37
2018-05-06T18:24:29.896Z,5.90
2018-05-06T18:27:01.449Z,6.33
2018-05-06T18:29:29.166Z,5.93
2018-05-06T18:31:58.431Z,6.03
2018-05-06T18:34:26.024Z,5.80
2018-05-06T18:37:07.763Z,6.10
2018-05-06T18:39:37.470Z,5.87
2018-05-06T18:42:07.761Z,5.60
2018-05-06T18:44:38.555Z,5.37
2018-05-06T18:47:07.387Z,5.03
2018-05-06T18:49:34.959Z,5.07
2018-05-06T18:52:02.697Z,5.50
2018-05-06T18:54:30.420Z,6.00
2018-05-06T18:57:01.349Z,4.80
2018-05-06T18:59:30.194Z,5.77
2018-05-06T19:01:58.095Z,5.83
2018-05-06T19:04:27.475Z,5.90
2018-05-06T19:06:55.381Z,6.20
2018-05-06T19:09:23.005Z,5.93
2018-05-06T19:11:50.725Z,5.17
2018-05-06T19:14:18.579Z,5.43
2018-05-06T19:16:50.902Z,5.37
2018-05-06T19:19:21.373Z,5.07
2018-05-06T19:22:03.335Z,5.50
2018-05-06T19:24:30.890Z,5.77
2018-05-06T19:26:58.394Z,6.07
2018-05-06T19:29:25.903Z,5.47
2018-05-06T19:31:55.216Z,5.50
2018-05-06T19:34:22.963Z,5.67
2018-05-06T19:39:43.151Z,4.70
2018-05-06T19:42:10.724Z,5.17
2018-05-06T19:44:38.214Z,5.90
2018-05-06T19:47:05.747Z,5.87
2018-05-06T19:52:31.456Z,5.37
2018-05-06T19:57:51.544Z,5.23
2018-05-06T20:00:19.064Z,5.80
2018-05-06T20:02:46.662Z,5.30
2018-05-06T20:08:07.079Z,5.47
2018-05-06T20:10:35.629Z,6.57
2018-05-06T20:13:03.309Z,7.07
2018-05-06T20:15:30.849Z,5.93
2018-05-06T20:17:58.380Z,5.53
2018-05-06T20:20:25.899Z,4.43
2018-05-06T20:23:01.363Z,5.00
2018-05-06T20:25:30.917Z,4.67
2018-05-06T20:28:00.818Z,6.30
2018-05-06T20:30:30.264Z,8.30
2018-05-06T20:32:57.823Z,7.20
2018-05-06T20:35:25.475Z,4.90
2018-05-06T20:37:53.077Z,5.00
2018-05-06T20:40:20.753Z,8.13
2018-05-06T20:42:52.680Z,6.20
2018-05-06T20:45:20.386Z,5.50
2018-05-06T20:47:48.032Z,5.20
2018-05-06T20:50:15.554Z,5.63
2018-05-06T20:52:43.135Z,4.70
2018-05-06T20:55:10.737Z,3.93
2018-05-06T20:57:40.243Z,3.20
2018-05-06T21:06:17.548Z,3.10
2018-05-06T21:08:45.056Z,3.50
2018-05-06T21:11:12.581Z,3.80
2018-05-06T21:13:40.130Z,3.43
2018-05-06T21:24:53.926Z,4.00
2018-05-06T21:27:21.438Z,3.77
2018-05-06T21:29:49.111Z,4.10
2018-05-06T21:38:46.173Z,4.80
2018-05-06T21:41:13.714Z,5.63
2018-05-06T21:43:41.214Z,5.00
2018-05-06T21:46:08.806Z,7.00
2018-05-06T21:48:37.297Z,5.20
2018-05-06T21:53:58.339Z,6.47
2018-05-06T21:59:18.434Z,3.77
2018-05-06T22:01:45.951Z,5.70
2018-05-06T22:04:13.619Z,9.30
2018-05-06T22:15:18.838Z,11.40
2018-05-06T22:17:46.359Z,11.93
2018-05-06T22:20:13.952Z,12.83
2018-05-06T22:22:41.610Z,12.60
2018-05-06T22:39:35.843Z,9.57
2018-05-06T22:42:03.458Z,9.33
2018-05-06T22:44:31.039Z,9.67
2018-05-06T22:47:01.969Z,9.10
2018-05-06T22:50:04.849Z,9.63
2018-05-06T22:52:32.354Z,11.63
2018-05-06T22:54:59.958Z,12.60
2018-05-06T22:57:27.502Z,12.87
2018-05-06T22:59:55.123Z,12.40
2018-05-06T23:11:18.514Z,11.90
2018-05-06T23:13:46.034Z,12.10
2018-05-06T23:16:13.822Z,12.10
2018-05-06T23:24:45.675Z,10.43
2018-05-06T23:29:51.389Z,10.20
2018-05-06T23:32:18.894Z,11.13
2018-05-06T23:34:46.390Z,11.90
